createdAt,value
2018-03-07T00:00:54.406Z,975.61
2018-03-07T00:01:54.405Z,975.60
2018-03-07T00:02:54.396Z,975.59
2018-03-07T00:03:54.389Z,975.60
2018-03-07T00:04:54.378Z,975.57
2018-03-07T00:05:54.369Z,975.56
2018-03-07T00:06:54.362Z,975.58
2018-03-07T00:07:54.355Z,975.61
2018-03-07T00:08:54.349Z,975.59
2018-03-07T00:09:54.340Z,975.58
2018-03-07T00:10:54.334Z,975.61
2018-03-07T00:11:54.325Z,975.60
2018-03-07T00:12:54.318Z,975.62
2018-03-07T00:13:54.312Z,975.57
2018-03-07T00:14:54.303Z,975.59
2018-03-07T00:15:54.295Z,975.60
2018-03-07T00:16:54.294Z,975.62
2018-03-07T00:17:54.281Z,975.59
2018-03-07T00:18:54.275Z,975.58
2018-03-07T00:19:54.268Z,975.65
2018-03-07T00:20:54.262Z,975.63
2018-03-07T00:21:54.281Z,975.59
2018-03-07T00:22:54.249Z,975.59
2018-03-07T00:23:54.241Z,975.62
2018-03-07T00:24:54.234Z,975.58
2018-03-07T00:25:54.221Z,975.63
2018-03-07T00:26:54.217Z,975.65
2018-03-07T00:27:54.211Z,975.60
2018-03-07T00:28:54.200Z,975.60
2018-03-07T00:29:54.193Z,975.59
2018-03-07T00:30:54.191Z,975.60
2018-03-07T00:31:54.176Z,975.57
2018-03-07T00:32:54.170Z,975.56
2018-03-07T00:33:54.168Z,975.57
2018-03-07T00:34:54.168Z,975.57
2018-03-07T00:35:54.147Z,975.55
2018-03-07T00:36:54.143Z,975.55
2018-03-07T00:37:54.133Z,975.55
2018-03-07T00:38:54.143Z,975.57
2018-03-07T00:39:54.121Z,975.54
2018-03-07T00:40:54.111Z,975.53
2018-03-07T00:41:54.108Z,975.58
2018-03-07T00:42:54.100Z,975.57
2018-03-07T00:43:54.095Z,975.59
2018-03-07T00:44:54.083Z,975.59
2018-03-07T00:45:54.087Z,975.59
2018-03-07T00:46:54.103Z,975.57
2018-03-07T00:47:54.061Z,975.58
2018-03-07T00:48:54.052Z,975.57
2018-03-07T00:49:54.048Z,975.60
2018-03-07T00:50:54.041Z,975.61
2018-03-07T00:51:54.031Z,975.60
2018-03-07T00:52:54.027Z,975.59
2018-03-07T00:53:54.018Z,975.58
2018-03-07T00:54:54.010Z,975.60
2018-03-07T00:55:54.001Z,975.63
2018-03-07T00:56:53.996Z,975.59
2018-03-07T00:57:53.996Z,975.54
2018-03-07T00:58:53.980Z,975.56
2018-03-07T00:59:53.979Z,975.57
2018-03-07T01:00:53.965Z,975.62
2018-03-07T01:01:53.958Z,975.58
2018-03-07T01:02:53.950Z,975.59
2018-03-07T01:03:53.944Z,975.55
2018-03-07T01:04:53.942Z,975.58
2018-03-07T01:05:53.928Z,975.55
2018-03-07T01:06:53.924Z,975.52
2018-03-07T01:07:53.919Z,975.55
2018-03-07T01:08:53.908Z,975.57
2018-03-07T01:09:53.903Z,975.57
2018-03-07T01:10:53.893Z,975.59
2018-03-07T01:11:53.883Z,975.59
2018-03-07T01:12:53.881Z,975.57
2018-03-07T01:13:53.871Z,975.61
2018-03-07T01:14:53.860Z,975.67
2018-03-07T01:15:53.855Z,975.66
2018-03-07T01:16:53.845Z,975.67
2018-03-07T01:17:53.841Z,975.70
2018-03-07T01:18:53.832Z,975.70
2018-03-07T01:19:53.822Z,975.67
2018-03-07T01:20:53.819Z,975.71
2018-03-07T01:21:53.808Z,975.70
2018-03-07T01:22:53.800Z,975.68
2018-03-07T01:23:53.803Z,975.70
2018-03-07T01:24:53.788Z,975.69
2018-03-07T01:25:53.778Z,975.73
2018-03-07T01:26:53.769Z,975.69
2018-03-07T01:27:53.762Z,975.68
2018-03-07T01:28:53.753Z,975.63
2018-03-07T01:29:53.745Z,975.58
2018-03-07T01:30:53.741Z,975.58
2018-03-07T01:31:53.731Z,975.56
2018-03-07T01:32:53.723Z,975.56
2018-03-07T01:33:53.715Z,975.57
2018-03-07T01:34:53.708Z,975.56
2018-03-07T01:35:53.701Z,975.55
2018-03-07T01:36:53.692Z,975.58
2018-03-07T01:37:53.687Z,975.60
2018-03-07T01:38:53.680Z,975.62
2018-03-07T01:39:53.668Z,975.67
2018-03-07T01:40:53.660Z,975.63
2018-03-07T01:41:53.654Z,975.63
2018-03-07T01:42:53.646Z,975.56
2018-03-07T01:43:53.638Z,975.58
2018-03-07T01:44:53.630Z,975.59
2018-03-07T01:45:53.629Z,975.58
2018-03-07T01:46:53.615Z,975.58
2018-03-07T01:47:53.605Z,975.59
2018-03-07T01:48:53.599Z,975.53
2018-03-07T01:49:53.593Z,975.51
2018-03-07T01:50:53.584Z,975.46
2018-03-07T01:51:53.575Z,975.47
2018-03-07T01:52:53.567Z,975.48
2018-03-07T01:53:53.559Z,975.50
2018-03-07T01:54:53.553Z,975.48
2018-03-07T01:55:53.546Z,975.44
2018-03-07T01:56:53.538Z,975.48
2018-03-07T01:57:53.531Z,975.46
2018-03-07T01:58:53.524Z,975.46
2018-03-07T01:59:53.515Z,975.46
2018-03-07T02:00:53.508Z,975.47
2018-03-07T02:01:53.502Z,975.50
2018-03-07T02:02:53.491Z,975.50
2018-03-07T02:03:53.483Z,975.50
2018-03-07T02:04:53.480Z,975.50
2018-03-07T02:05:53.469Z,975.49
2018-03-07T02:06:53.483Z,975.51
2018-03-07T02:07:53.454Z,975.51
2018-03-07T02:08:53.446Z,975.52
2018-03-07T02:09:53.438Z,975.56
2018-03-07T02:10:53.429Z,975.57
2018-03-07T02:11:53.424Z,975.56
2018-03-07T02:12:53.418Z,975.53
2018-03-07T02:13:53.407Z,975.56
2018-03-07T02:14:53.408Z,975.54
2018-03-07T02:15:53.393Z,975.56
2018-03-07T02:16:53.386Z,975.55
2018-03-07T02:17:53.377Z,975.53
2018-03-07T02:18:53.372Z,975.54
2018-03-07T02:19:53.361Z,975.54
2018-03-07T02:20:53.353Z,975.50
2018-03-07T02:21:53.346Z,975.51
2018-03-07T02:22:53.338Z,975.49
2018-03-07T02:23:53.330Z,975.46
2018-03-07T02:24:53.325Z,975.47
2018-03-07T02:25:53.316Z,975.44
2018-03-07T02:26:53.308Z,975.41
2018-03-07T02:27:53.298Z,975.43
2018-03-07T02:28:53.293Z,975.46
2018-03-07T02:29:53.285Z,975.44
2018-03-07T02:30:53.276Z,975.44
2018-03-07T02:31:53.267Z,975.42
2018-03-07T02:32:53.262Z,975.42
2018-03-07T02:33:53.253Z,975.43
2018-03-07T02:34:53.247Z,975.39
2018-03-07T02:35:53.238Z,975.36
2018-03-07T02:36:53.231Z,975.35
2018-03-07T02:37:53.223Z,975.33
2018-03-07T02:38:53.214Z,975.35
2018-03-07T02:39:53.212Z,975.31
2018-03-07T02:40:53.199Z,975.33
2018-03-07T02:41:53.196Z,975.32
2018-03-07T02:42:53.186Z,975.25
2018-03-07T02:43:53.176Z,975.28
2018-03-07T02:44:53.171Z,975.33
2018-03-07T02:45:53.160Z,975.29
2018-03-07T02:46:53.152Z,975.28
2018-03-07T02:47:53.144Z,975.26
2018-03-07T02:48:53.136Z,975.27
2018-03-07T02:49:53.129Z,975.26
2018-03-07T02:50:53.123Z,975.28
2018-03-07T02:51:53.118Z,975.27
2018-03-07T02:52:53.112Z,975.29
2018-03-07T02:53:53.166Z,975.27
2018-03-07T02:54:53.093Z,975.31
2018-03-07T02:55:53.099Z,975.24
2018-03-07T02:56:53.075Z,975.28
2018-03-07T02:57:53.068Z,975.25
2018-03-07T02:58:53.059Z,975.26
2018-03-07T02:59:53.052Z,975.28
2018-03-07T03:00:53.045Z,975.32
2018-03-07T03:01:53.039Z,975.31
2018-03-07T03:02:53.028Z,975.28
2018-03-07T03:03:53.019Z,975.27
2018-03-07T03:04:53.012Z,975.29
2018-03-07T03:05:53.006Z,975.32
2018-03-07T03:06:53.001Z,975.32
2018-03-07T03:07:52.987Z,975.31
2018-03-07T03:08:52.979Z,975.33
2018-03-07T03:09:52.972Z,975.31
2018-03-07T03:10:52.964Z,975.30
2018-03-07T03:11:52.956Z,975.32
2018-03-07T03:12:52.948Z,975.36
2018-03-07T03:13:52.943Z,975.32
2018-03-07T03:14:52.933Z,975.32
2018-03-07T03:15:52.931Z,975.35
2018-03-07T03:16:52.917Z,975.35
2018-03-07T03:17:52.909Z,975.32
2018-03-07T03:18:52.905Z,975.33
2018-03-07T03:19:52.895Z,975.31
2018-03-07T03:20:52.885Z,975.30
2018-03-07T03:21:52.879Z,975.30
2018-03-07T03:22:52.869Z,975.31
2018-03-07T03:23:52.860Z,975.31
2018-03-07T03:24:52.861Z,975.30
2018-03-07T03:25:52.846Z,975.30
2018-03-07T03:26:52.879Z,975.26
2018-03-07T03:27:52.831Z,975.28
2018-03-07T03:28:52.831Z,975.29
2018-03-07T03:29:52.813Z,975.26
2018-03-07T03:30:52.814Z,975.30
2018-03-07T03:31:52.800Z,975.29
2018-03-07T03:32:52.791Z,975.30
2018-03-07T03:33:52.782Z,975.27
2018-03-07T03:34:52.777Z,975.30
2018-03-07T03:35:52.765Z,975.30
2018-03-07T03:36:52.762Z,975.27
2018-03-07T03:37:52.751Z,975.27
2018-03-07T03:38:52.742Z,975.32
2018-03-07T03:39:52.736Z,975.29
2018-03-07T03:40:52.727Z,975.26
2018-03-07T03:41:52.718Z,975.32
2018-03-07T03:42:52.710Z,975.33
2018-03-07T03:43:52.703Z,975.33
2018-03-07T03:44:52.694Z,975.35
2018-03-07T03:45:52.687Z,975.33
2018-03-07T03:46:52.678Z,975.34
2018-03-07T03:47:52.672Z,975.36
2018-03-07T03:48:52.662Z,975.36
2018-03-07T03:49:52.654Z,975.35
2018-03-07T03:50:52.646Z,975.36
2018-03-07T03:51:52.638Z,975.38
2018-03-07T03:52:52.630Z,975.43
2018-03-07T03:53:52.623Z,975.47
2018-03-07T03:54:52.614Z,975.53
2018-03-07T03:55:52.604Z,975.55
2018-03-07T03:56:52.598Z,975.57
2018-03-07T03:57:52.589Z,975.55
2018-03-07T03:58:52.581Z,975.54
2018-03-07T03:59:52.574Z,975.56
2018-03-07T04:00:52.566Z,975.55
2018-03-07T04:01:52.557Z,975.54
2018-03-07T04:02:52.549Z,975.54
2018-03-07T04:03:52.541Z,975.53
2018-03-07T04:04:52.537Z,975.53
2018-03-07T04:05:52.526Z,975.54
2018-03-07T04:06:52.518Z,975.53
2018-03-07T04:07:52.508Z,975.55
2018-03-07T04:08:52.501Z,975.57
2018-03-07T04:09:52.494Z,975.56
2018-03-07T04:10:52.486Z,975.54
2018-03-07T04:11:52.485Z,975.53
2018-03-07T04:12:52.473Z,975.52
2018-03-07T04:13:52.460Z,975.54
2018-03-07T04:14:52.451Z,975.55
2018-03-07T04:15:52.443Z,975.52
2018-03-07T04:16:52.435Z,975.54
2018-03-07T04:17:52.429Z,975.55
2018-03-07T04:18:52.419Z,975.55
2018-03-07T04:19:52.413Z,975.57
2018-03-07T04:20:52.404Z,975.56
2018-03-07T04:21:52.397Z,975.57
2018-03-07T04:22:52.387Z,975.57
2018-03-07T04:23:52.377Z,975.55
2018-03-07T04:24:52.371Z,975.59
2018-03-07T04:25:52.363Z,975.58
2018-03-07T04:26:52.356Z,975.60
2018-03-07T04:27:52.343Z,975.62
2018-03-07T04:28:52.336Z,975.60
2018-03-07T04:29:52.328Z,975.58
2018-03-07T04:30:52.321Z,975.56
2018-03-07T04:31:52.311Z,975.55
2018-03-07T04:32:52.304Z,975.58
2018-03-07T04:33:52.294Z,975.60
2018-03-07T04:34:52.290Z,975.60
2018-03-07T04:35:52.278Z,975.58
2018-03-07T04:36:52.272Z,975.57
2018-03-07T04:37:52.262Z,975.58
2018-03-07T04:38:52.257Z,975.56
2018-03-07T04:39:52.245Z,975.59
2018-03-07T04:40:52.239Z,975.55
2018-03-07T04:41:52.229Z,975.55
2018-03-07T04:42:52.222Z,975.54
2018-03-07T04:43:52.220Z,975.57
2018-03-07T04:44:52.207Z,975.61
2018-03-07T04:45:52.195Z,975.59
2018-03-07T04:46:52.188Z,975.59
2018-03-07T04:47:52.179Z,975.56
2018-03-07T04:48:52.172Z,975.58
2018-03-07T04:49:52.169Z,975.61
2018-03-07T04:50:52.155Z,975.63
2018-03-07T04:51:52.149Z,975.63
2018-03-07T04:52:52.137Z,975.66
2018-03-07T04:53:52.129Z,975.67
2018-03-07T04:54:52.122Z,975.66
2018-03-07T04:55:52.112Z,975.64
2018-03-07T04:56:52.107Z,975.63
2018-03-07T04:57:52.094Z,975.68
2018-03-07T04:58:52.091Z,975.67
2018-03-07T04:59:52.080Z,975.64
2018-03-07T05:00:52.070Z,975.66
2018-03-07T05:01:52.062Z,975.67
2018-03-07T05:02:52.054Z,975.66
2018-03-07T05:03:52.045Z,975.66
2018-03-07T05:04:52.037Z,975.64
2018-03-07T05:05:52.027Z,975.64
2018-03-07T05:06:52.019Z,975.66
2018-03-07T05:07:52.011Z,975.66
2018-03-07T05:08:52.003Z,975.66
2018-03-07T05:09:51.996Z,975.68
2018-03-07T05:10:51.986Z,975.67
2018-03-07T05:11:51.976Z,975.69
2018-03-07T05:12:51.970Z,975.70
2018-03-07T05:13:51.960Z,975.68
2018-03-07T05:14:51.951Z,975.68
2018-03-07T05:15:51.944Z,975.70
2018-03-07T05:16:51.934Z,975.72
2018-03-07T05:17:51.927Z,975.68
2018-03-07T05:18:51.924Z,975.69
2018-03-07T05:19:51.910Z,975.71
2018-03-07T05:20:51.899Z,975.70
2018-03-07T05:21:51.894Z,975.68
2018-03-07T05:22:51.888Z,975.69
2018-03-07T05:23:51.878Z,975.73
2018-03-07T05:24:51.868Z,975.70
2018-03-07T05:25:51.859Z,975.71
2018-03-07T05:26:51.848Z,975.70
2018-03-07T05:27:51.844Z,975.67
2018-03-07T05:28:51.835Z,975.68
2018-03-07T05:29:51.823Z,975.73
2018-03-07T05:30:51.819Z,975.72
2018-03-07T05:31:51.806Z,975.74
2018-03-07T05:32:51.798Z,975.71
2018-03-07T05:33:51.790Z,975.69
2018-03-07T05:34:51.785Z,975.70
2018-03-07T05:35:51.772Z,975.71
2018-03-07T05:36:51.760Z,975.71
2018-03-07T05:37:51.758Z,975.67
2018-03-07T05:38:51.745Z,975.70
2018-03-07T05:39:51.735Z,975.71
2018-03-07T05:40:51.727Z,975.68
2018-03-07T05:41:51.723Z,975.66
2018-03-07T05:42:51.712Z,975.69
2018-03-07T05:43:51.701Z,975.68
2018-03-07T05:44:51.696Z,975.71
2018-03-07T05:45:51.701Z,975.69
2018-03-07T05:46:51.676Z,975.71
2018-03-07T05:47:51.674Z,975.72
2018-03-07T05:48:51.660Z,975.71
2018-03-07T05:49:51.657Z,975.67
2018-03-07T05:50:51.650Z,975.74
2018-03-07T05:51:51.665Z,975.71
2018-03-07T05:52:51.656Z,975.74
2018-03-07T05:53:51.634Z,975.78
2018-03-07T05:54:51.641Z,975.77
2018-03-07T05:55:51.606Z,975.76
2018-03-07T05:56:51.591Z,975.76
2018-03-07T05:57:51.587Z,975.76
2018-03-07T05:58:51.665Z,975.77
2018-03-07T05:59:51.627Z,975.79
2018-03-07T06:00:51.572Z,975.72
2018-03-07T06:01:51.564Z,975.76
2018-03-07T06:02:51.557Z,975.77
2018-03-07T06:03:51.556Z,975.79
2018-03-07T06:04:51.570Z,975.82
2018-03-07T06:05:51.539Z,975.84
2018-03-07T06:06:51.584Z,975.83
2018-03-07T06:07:51.580Z,975.83
2018-03-07T06:08:51.576Z,975.86
2018-03-07T06:09:51.500Z,975.88
2018-03-07T06:10:51.507Z,975.88
2018-03-07T06:11:51.463Z,975.93
2018-03-07T06:12:51.452Z,975.89
2018-03-07T06:13:51.451Z,975.90
2018-03-07T06:14:51.440Z,975.90
2018-03-07T06:15:51.436Z,975.91
2018-03-07T06:16:51.419Z,975.92
2018-03-07T06:17:51.410Z,975.95
2018-03-07T06:18:51.404Z,975.95
2018-03-07T06:19:51.394Z,975.95
2018-03-07T06:20:51.383Z,975.96
2018-03-07T06:21:51.373Z,976.02
2018-03-07T06:22:51.368Z,975.99
2018-03-07T06:23:51.357Z,975.99
2018-03-07T06:24:51.353Z,975.99
2018-03-07T06:25:51.342Z,976.00
2018-03-07T06:26:51.379Z,976.02
2018-03-07T06:27:51.324Z,976.03
2018-03-07T06:28:51.314Z,976.04
2018-03-07T06:29:51.321Z,976.07
2018-03-07T06:30:51.296Z,976.06
2018-03-07T06:31:51.289Z,976.11
2018-03-07T06:32:51.282Z,976.13
2018-03-07T06:33:51.275Z,976.10
2018-03-07T06:34:51.566Z,976.09
2018-03-07T06:35:51.327Z,976.12
2018-03-07T06:36:51.244Z,976.14
2018-03-07T06:37:51.235Z,976.11
2018-03-07T06:38:51.231Z,976.16
2018-03-07T06:39:51.219Z,976.10
2018-03-07T06:40:51.209Z,976.11
2018-03-07T06:41:51.202Z,976.11
2018-03-07T06:42:51.193Z,976.14
2018-03-07T06:43:51.184Z,976.15
2018-03-07T06:44:51.174Z,976.18
2018-03-07T06:45:51.166Z,976.19
2018-03-07T06:46:51.160Z,976.15
2018-03-07T06:47:51.149Z,976.16
2018-03-07T06:48:51.143Z,976.15
2018-03-07T06:49:51.133Z,976.18
2018-03-07T06:50:51.162Z,976.21
2018-03-07T06:51:51.114Z,976.22
2018-03-07T06:52:51.117Z,976.26
2018-03-07T06:53:51.100Z,976.25
2018-03-07T06:54:51.096Z,976.25
2018-03-07T06:55:51.082Z,976.21
2018-03-07T06:56:51.072Z,976.26
2018-03-07T06:57:51.066Z,976.25
2018-03-07T06:58:51.061Z,976.26
2018-03-07T06:59:51.050Z,976.29
2018-03-07T07:00:51.037Z,976.29
2018-03-07T07:01:51.029Z,976.29
2018-03-07T07:02:51.021Z,976.30
2018-03-07T07:03:51.012Z,976.31
2018-03-07T07:04:51.007Z,976.30
2018-03-07T07:05:50.996Z,976.33
2018-03-07T07:06:50.994Z,976.34
2018-03-07T07:07:50.979Z,976.34
2018-03-07T07:08:50.970Z,976.36
2018-03-07T07:09:50.963Z,976.37
2018-03-07T07:10:50.955Z,976.38
2018-03-07T07:11:50.947Z,976.35
2018-03-07T07:12:50.939Z,976.33
2018-03-07T07:13:50.930Z,976.36
2018-03-07T07:14:50.921Z,976.34
2018-03-07T07:15:50.913Z,976.38
2018-03-07T07:16:50.924Z,976.39
2018-03-07T07:17:50.894Z,976.41
2018-03-07T07:18:50.886Z,976.40
2018-03-07T07:19:50.884Z,976.39
2018-03-07T07:20:50.869Z,976.38
2018-03-07T07:21:50.864Z,976.43
2018-03-07T07:22:50.853Z,976.45
2018-03-07T07:23:50.843Z,976.44
2018-03-07T07:24:50.836Z,976.43
2018-03-07T07:25:50.829Z,976.41
2018-03-07T07:26:50.820Z,976.42
2018-03-07T07:27:50.813Z,976.42
2018-03-07T07:28:50.803Z,976.40
2018-03-07T07:29:50.799Z,976.43
2018-03-07T07:30:50.799Z,976.43
2018-03-07T07:31:50.777Z,976.38
2018-03-07T07:32:50.770Z,976.46
2018-03-07T07:33:50.762Z,976.42
2018-03-07T07:34:50.754Z,976.50
2018-03-07T07:35:50.746Z,976.52
2018-03-07T07:36:50.741Z,976.51
2018-03-07T07:37:50.730Z,976.48
2018-03-07T07:38:50.720Z,976.54
2018-03-07T07:39:50.714Z,976.54
2018-03-07T07:40:50.717Z,976.57
2018-03-07T07:41:50.700Z,976.57
2018-03-07T07:42:50.693Z,976.60
2018-03-07T07:43:50.682Z,976.57
2018-03-07T07:44:50.681Z,976.57
2018-03-07T07:45:50.667Z,976.55
2018-03-07T07:46:50.659Z,976.60
2018-03-07T07:47:50.649Z,976.61
2018-03-07T07:48:51.149Z,976.63
2018-03-07T07:49:50.667Z,976.63
2018-03-07T07:50:50.626Z,976.65
2018-03-07T07:51:50.900Z,976.64
2018-03-07T07:52:50.609Z,976.65
2018-03-07T07:53:50.600Z,976.65
2018-03-07T07:54:50.604Z,976.68
2018-03-07T07:55:50.586Z,976.66
2018-03-07T07:56:50.579Z,976.69
2018-03-07T07:57:50.595Z,976.78
2018-03-07T07:58:50.561Z,976.72
2018-03-07T07:59:50.557Z,976.74
2018-03-07T08:00:50.546Z,976.79
2018-03-07T08:01:50.539Z,976.78
2018-03-07T08:02:50.655Z,976.80
2018-03-07T08:03:50.666Z,976.83
2018-03-07T08:04:50.747Z,976.81
2018-03-07T08:05:50.608Z,976.83
2018-03-07T08:06:50.501Z,976.85
2018-03-07T08:07:50.490Z,976.83
2018-03-07T08:08:50.487Z,976.85
2018-03-07T08:09:50.478Z,976.80
2018-03-07T08:10:51.143Z,976.83
2018-03-07T08:11:50.460Z,976.82
2018-03-07T08:12:50.453Z,976.83
2018-03-07T08:13:50.450Z,976.83
2018-03-07T08:14:50.437Z,976.88
2018-03-07T08:15:50.429Z,976.92
2018-03-07T08:16:50.425Z,976.87
2018-03-07T08:17:50.416Z,976.91
2018-03-07T08:18:50.406Z,976.89
2018-03-07T08:19:50.397Z,976.93
2018-03-07T08:20:50.482Z,976.91
2018-03-07T08:21:50.384Z,976.94
2018-03-07T08:22:50.375Z,976.94
2018-03-07T08:23:50.366Z,976.92
2018-03-07T08:24:50.364Z,976.90
2018-03-07T08:25:50.360Z,976.93
2018-03-07T08:26:50.360Z,976.96
2018-03-07T08:27:50.336Z,976.99
2018-03-07T08:28:50.331Z,977.04
2018-03-07T08:29:50.324Z,977.06
2018-03-07T08:30:50.319Z,977.03
2018-03-07T08:31:50.736Z,977.07
2018-03-07T08:32:50.299Z,977.08
2018-03-07T08:33:51.162Z,977.12
2018-03-07T08:34:50.302Z,977.13
2018-03-07T08:35:50.278Z,977.14
2018-03-07T08:36:50.540Z,977.12
2018-03-07T08:37:50.262Z,977.14
2018-03-07T08:38:50.425Z,977.16
2018-03-07T08:39:50.247Z,977.16
2018-03-07T08:40:50.319Z,977.24
2018-03-07T08:41:50.235Z,977.23
2018-03-07T08:42:50.228Z,977.21
2018-03-07T08:43:50.234Z,977.21
2018-03-07T08:44:50.210Z,977.23
2018-03-07T08:45:50.371Z,977.19
2018-03-07T08:46:50.786Z,977.20
2018-03-07T08:47:50.200Z,977.18
2018-03-07T08:48:50.240Z,977.22
2018-03-07T08:49:50.328Z,977.23
2018-03-07T08:50:50.174Z,977.22
2018-03-07T08:51:50.166Z,977.19
2018-03-07T08:52:50.149Z,977.17
2018-03-07T08:53:50.142Z,977.18
2018-03-07T08:54:50.167Z,977.17
2018-03-07T08:55:50.128Z,977.15
2018-03-07T08:56:50.120Z,977.17
2018-03-07T08:57:50.119Z,977.21
2018-03-07T08:58:50.110Z,977.24
2018-03-07T08:59:50.097Z,977.18
2018-03-07T09:00:50.094Z,977.24
2018-03-07T09:01:50.269Z,977.25
2018-03-07T09:02:50.076Z,977.27
2018-03-07T09:03:50.695Z,977.24
2018-03-07T09:04:50.063Z,977.28
2018-03-07T09:05:50.057Z,977.29
2018-03-07T09:06:51.217Z,977.28
2018-03-07T09:07:50.040Z,977.30
2018-03-07T09:08:50.031Z,977.30
2018-03-07T09:09:50.025Z,977.30
2018-03-07T09:10:56.660Z,977.32
2018-03-07T09:11:50.008Z,977.32
2018-03-07T09:12:50.001Z,977.32
2018-03-07T09:13:49.994Z,977.32
2018-03-07T09:14:50.020Z,977.31
2018-03-07T09:15:49.979Z,977.32
2018-03-07T09:16:49.971Z,977.33
2018-03-07T09:17:50.071Z,977.37
2018-03-07T09:18:49.956Z,977.36
2018-03-07T09:19:49.967Z,977.36
2018-03-07T09:20:49.991Z,977.36
2018-03-07T09:21:49.938Z,977.41
2018-03-07T09:22:50.064Z,977.39
2018-03-07T09:23:49.919Z,977.37
2018-03-07T09:24:49.916Z,977.39
2018-03-07T09:25:49.908Z,977.42
2018-03-07T09:26:49.898Z,977.40
2018-03-07T09:27:49.890Z,977.41
2018-03-07T09:28:49.884Z,977.41
2018-03-07T09:29:49.879Z,977.48
2018-03-07T09:30:49.874Z,977.40
2018-03-07T09:31:49.862Z,977.48
2018-03-07T09:32:49.871Z,977.48
2018-03-07T09:33:49.849Z,977.46
2018-03-07T09:34:49.843Z,977.46
2018-03-07T09:35:49.835Z,977.51
2018-03-07T09:36:49.828Z,977.46
2018-03-07T09:37:49.822Z,977.52
2018-03-07T09:38:49.812Z,977.50
2018-03-07T09:39:49.813Z,977.57
2018-03-07T09:40:49.803Z,977.58
2018-03-07T09:41:49.791Z,977.55
2018-03-07T09:42:49.788Z,977.58
2018-03-07T09:43:49.782Z,977.60
2018-03-07T09:44:49.770Z,977.64
2018-03-07T09:45:49.764Z,977.61
2018-03-07T09:46:49.787Z,977.66
2018-03-07T09:47:49.749Z,977.60
2018-03-07T09:48:49.745Z,977.64
2018-03-07T09:49:49.738Z,977.65
2018-03-07T09:50:49.732Z,977.64
2018-03-07T09:51:49.724Z,977.65
2018-03-07T09:52:49.724Z,977.67
2018-03-07T09:53:49.713Z,977.70
2018-03-07T09:54:49.708Z,977.72
2018-03-07T09:55:49.697Z,977.72
2018-03-07T09:56:49.696Z,977.71
2018-03-07T09:57:49.685Z,977.72
2018-03-07T09:58:49.678Z,977.74
2018-03-07T09:59:49.680Z,977.76
2018-03-07T10:00:49.667Z,977.77
2018-03-07T10:01:49.665Z,977.74
2018-03-07T10:02:49.653Z,977.78
2018-03-07T10:03:49.646Z,977.78
2018-03-07T10:04:49.640Z,977.76
2018-03-07T10:05:49.635Z,977.76
2018-03-07T10:06:49.626Z,977.75
2018-03-07T10:07:49.624Z,977.77
2018-03-07T10:08:49.617Z,977.70
2018-03-07T10:09:49.613Z,977.70
2018-03-07T10:10:49.601Z,977.74
2018-03-07T10:11:49.594Z,977.72
2018-03-07T10:12:49.590Z,977.74
2018-03-07T10:13:49.583Z,977.74
2018-03-07T10:14:49.580Z,977.74
2018-03-07T10:15:49.569Z,977.73
2018-03-07T10:16:49.564Z,977.76
2018-03-07T10:17:49.557Z,977.74
2018-03-07T10:18:49.554Z,977.80
2018-03-07T10:19:49.547Z,977.77
2018-03-07T10:20:49.596Z,977.80
2018-03-07T10:21:49.536Z,977.80
2018-03-07T10:22:49.547Z,977.84
2018-03-07T10:23:49.519Z,977.79
2018-03-07T10:24:49.513Z,977.80
2018-03-07T10:25:49.515Z,977.79
2018-03-07T10:26:49.502Z,977.84
2018-03-07T10:27:49.498Z,977.78
2018-03-07T10:28:49.506Z,977.79
2018-03-07T10:29:49.483Z,977.78
2018-03-07T10:30:49.477Z,977.77
2018-03-07T10:31:49.472Z,977.76
2018-03-07T10:32:49.466Z,977.74
2018-03-07T10:33:49.462Z,977.80
2018-03-07T10:34:49.455Z,977.79
2018-03-07T10:35:49.449Z,977.77
2018-03-07T10:36:49.445Z,977.79
2018-03-07T10:37:49.441Z,977.81
2018-03-07T10:38:49.433Z,977.79
2018-03-07T10:39:49.427Z,977.84
2018-03-07T10:40:49.422Z,977.78
2018-03-07T10:41:49.418Z,977.75
2018-03-07T10:42:49.411Z,977.82
2018-03-07T10:43:49.405Z,977.85
2018-03-07T10:44:49.401Z,977.83
2018-03-07T10:45:49.396Z,977.84
2018-03-07T10:46:49.394Z,977.82
2018-03-07T10:47:49.387Z,977.83
2018-03-07T10:48:49.381Z,977.83
2018-03-07T10:49:49.380Z,977.85
2018-03-07T10:50:49.373Z,977.89
2018-03-07T10:51:49.366Z,977.87
2018-03-07T10:52:49.365Z,977.91
2018-03-07T10:53:49.358Z,977.96
2018-03-07T10:54:49.359Z,977.88
2018-03-07T10:55:49.347Z,977.90
2018-03-07T10:56:49.383Z,977.90
2018-03-07T10:57:49.338Z,977.89
2018-03-07T10:58:49.354Z,977.91
2018-03-07T10:59:49.330Z,977.89
2018-03-07T11:00:49.324Z,977.89
2018-03-07T11:01:49.320Z,977.88
2018-03-07T11:02:49.316Z,977.87
2018-03-07T11:03:49.313Z,977.89
2018-03-07T11:04:49.307Z,977.85
2018-03-07T11:05:49.302Z,977.83
2018-03-07T11:06:49.296Z,977.85
2018-03-07T11:07:49.315Z,977.83
2018-03-07T11:08:49.290Z,977.83
2018-03-07T11:09:49.285Z,977.85
2018-03-07T11:10:49.471Z,977.82
2018-03-07T11:11:49.280Z,977.82
2018-03-07T11:12:49.269Z,977.80
2018-03-07T11:13:49.266Z,977.80
2018-03-07T11:14:49.272Z,977.79
2018-03-07T11:15:49.297Z,977.79
2018-03-07T11:16:49.255Z,977.85
2018-03-07T11:17:49.247Z,977.86
2018-03-07T11:18:49.244Z,977.83
2018-03-07T11:19:49.239Z,977.83
2018-03-07T11:20:49.244Z,977.81
2018-03-07T11:21:49.245Z,977.85
2018-03-07T11:22:49.231Z,977.83
2018-03-07T11:23:49.220Z,977.89
2018-03-07T11:24:49.230Z,977.86
2018-03-07T11:25:49.215Z,977.86
2018-03-07T11:26:49.222Z,977.92
2018-03-07T11:27:49.205Z,977.91
2018-03-07T11:28:49.201Z,977.94
2018-03-07T11:29:49.199Z,977.95
2018-03-07T11:30:49.195Z,977.93
2018-03-07T11:31:49.191Z,977.93
2018-03-07T11:32:49.187Z,977.92
2018-03-07T11:33:49.181Z,977.90
2018-03-07T11:34:49.182Z,977.94
2018-03-07T11:35:49.174Z,977.91
2018-03-07T11:36:49.175Z,977.96
2018-03-07T11:37:49.181Z,977.90
2018-03-07T11:38:49.164Z,977.90
2018-03-07T11:39:49.204Z,977.95
2018-03-07T11:40:49.156Z,977.94
2018-03-07T11:41:49.351Z,977.99
2018-03-07T11:42:49.146Z,977.97
2018-03-07T11:43:49.313Z,978.02
2018-03-07T11:44:49.139Z,977.98
2018-03-07T11:45:49.134Z,977.99
2018-03-07T11:46:49.132Z,977.94
2018-03-07T11:47:49.128Z,977.96
2018-03-07T11:48:49.126Z,977.95
2018-03-07T11:49:49.120Z,977.98
2018-03-07T11:50:49.118Z,977.97
2018-03-07T11:51:49.113Z,977.95
2018-03-07T11:52:49.111Z,977.93
2018-03-07T11:53:49.107Z,977.96
2018-03-07T11:54:49.103Z,977.93
2018-03-07T11:55:49.097Z,977.95
2018-03-07T11:56:49.093Z,977.99
2018-03-07T11:57:49.154Z,977.91
2018-03-07T11:58:49.086Z,977.96
2018-03-07T11:59:49.082Z,977.97
2018-03-07T12:00:49.080Z,977.91
2018-03-07T12:01:49.079Z,977.96
2018-03-07T12:02:49.073Z,978.02
2018-03-07T12:03:49.072Z,977.98
2018-03-07T12:04:49.066Z,977.98
2018-03-07T12:05:49.060Z,977.93
2018-03-07T12:06:49.058Z,977.88
2018-03-07T12:07:49.050Z,977.89
2018-03-07T12:08:49.049Z,977.88
2018-03-07T12:09:49.045Z,977.89
2018-03-07T12:10:49.051Z,977.90
2018-03-07T12:11:49.039Z,977.90
2018-03-07T12:12:49.589Z,977.91
2018-03-07T12:13:49.030Z,977.88
2018-03-07T12:14:49.026Z,977.87
2018-03-07T12:15:49.025Z,977.83
2018-03-07T12:16:49.019Z,977.86
2018-03-07T12:17:49.016Z,977.89
2018-03-07T12:18:49.018Z,977.89
2018-03-07T12:19:49.537Z,977.92
2018-03-07T12:20:49.013Z,977.91
2018-03-07T12:21:49.013Z,977.93
2018-03-07T12:22:49.097Z,977.94
2018-03-07T12:23:48.999Z,977.89
2018-03-07T12:24:48.992Z,977.94
2018-03-07T12:25:49.100Z,978.01
2018-03-07T12:26:49.624Z,977.97
2018-03-07T12:27:49.069Z,977.99
2018-03-07T12:28:49.622Z,977.94